RAM714T GMMN-LFMN
Flight info
| Callsign | RAM714T |
|---|---|
| Flight time | 2h 16m |
| Altitude | 38000 |
| Route | SADIC UR975 FES UG850 BERUM DCT GONZA N860 BEGOX DCT LASPO DCT SOPET DCT DIKUT DCT TORDU DCT LOTOS DCT EBROX DCT PEXOT DCT RODRA DCT BCN DCT FEVIK DCT DALIN DCT PIVUS DCT DIBER DCT SOSUR DCT SOFFY DCT MRM DCT ABLAK |
| Aircraft | B738/M-SDE3FGHIRWY/LB1 |
Departure
| Time | 2026-05-07 17:15 |
|---|---|
| Airport | Mohammed V International Airport (GMMN) |
Arrival
| Time | 2026-05-07 19:31 |
|---|---|
| Airport | Nice-Côte d'Azur Airport (LFMN) |
| Time | Latitude | Longitude | Altitude | Speed | Heading |
|---|---|---|---|---|---|
| 2026-05-07 16:24 | 33.37197 | -7.58220 | 648 ft | 0 kts | 74° |
| 2026-05-07 16:54 | 33.37196 | -7.58225 | 648 ft | 2 kts | 74° |
| 2026-05-07 16:55 | 33.37192 | -7.58242 | 648 ft | 2 kts | 75° |
| 2026-05-07 16:55 | 33.37188 | -7.58259 | 647 ft | 2 kts | 75° |
| 2026-05-07 16:55 | 33.37184 | -7.58276 | 647 ft | 2 kts | 75° |
| 2026-05-07 16:55 | 33.37180 | -7.58290 | 647 ft | 1 kts | 98° |
| 2026-05-07 16:56 | 33.37185 | -7.58299 | 648 ft | 0 kts | 154° |
| 2026-05-07 16:56 | 33.37190 | -7.58301 | 648 ft | 0 kts | 169° |
| 2026-05-07 16:56 | 33.37193 | -7.58302 | 649 ft | 0 kts | 164° |
| 2026-05-07 16:58 | 33.37189 | -7.58300 | 648 ft | 2 kts | 164° |
| 2026-05-07 16:59 | 33.37147 | -7.58286 | 645 ft | 9 kts | 163° |
| 2026-05-07 16:59 | 33.37071 | -7.58259 | 640 ft | 13 kts | 163° |
| 2026-05-07 16:59 | 33.36988 | -7.58231 | 640 ft | 11 kts | 168° |
| 2026-05-07 16:59 | 33.36937 | -7.58280 | 640 ft | 9 kts | 253° |
| 2026-05-07 17:00 | 33.36916 | -7.58366 | 641 ft | 12 kts | 254° |
| 2026-05-07 17:00 | 33.36880 | -7.58456 | 640 ft | 11 kts | 211° |
| 2026-05-07 17:00 | 33.36805 | -7.58448 | 642 ft | 11 kts | 164° |
| 2026-05-07 17:00 | 33.36708 | -7.58415 | 646 ft | 17 kts | 164° |
| 2026-05-07 17:01 | 33.36570 | -7.58368 | 648 ft | 23 kts | 163° |
| 2026-05-07 17:01 | 33.36415 | -7.58315 | 649 ft | 22 kts | 164° |
| 2026-05-07 17:01 | 33.36268 | -7.58263 | 651 ft | 21 kts | 163° |
| 2026-05-07 17:01 | 33.36129 | -7.58216 | 653 ft | 19 kts | 163° |
| 2026-05-07 17:02 | 33.36001 | -7.58172 | 654 ft | 18 kts | 163° |
| 2026-05-07 17:02 | 33.35876 | -7.58129 | 654 ft | 18 kts | 163° |
| 2026-05-07 17:02 | 33.35758 | -7.58089 | 655 ft | 17 kts | 163° |
| 2026-05-07 17:02 | 33.35646 | -7.58050 | 655 ft | 16 kts | 164° |
| 2026-05-07 17:03 | 33.35574 | -7.58026 | 655 ft | 16 kts | 164° |
| 2026-05-07 17:03 | 33.35368 | -7.57955 | 661 ft | 7 kts | 163° |
| 2026-05-07 17:03 | 33.35344 | -7.57947 | 661 ft | 0 kts | 166° |
| 2026-05-07 17:05 | 33.35337 | -7.57945 | 661 ft | 4 kts | 167° |
| 2026-05-07 17:05 | 33.35297 | -7.57943 | 661 ft | 5 kts | 190° |
| 2026-05-07 17:06 | 33.35284 | -7.57948 | 662 ft | 0 kts | 205° |
| 2026-05-07 17:07 | 33.35270 | -7.57961 | 662 ft | 5 kts | 225° |
| 2026-05-07 17:08 | 33.35247 | -7.58022 | 661 ft | 9 kts | 254° |
| 2026-05-07 17:08 | 33.35237 | -7.58065 | 660 ft | 0 kts | 255° |
| 2026-05-07 17:10 | 33.35234 | -7.58079 | 660 ft | 4 kts | 255° |
| 2026-05-07 17:10 | 33.35219 | -7.58145 | 660 ft | 10 kts | 255° |
| 2026-05-07 17:10 | 33.35200 | -7.58227 | 659 ft | 8 kts | 255° |
| 2026-05-07 17:11 | 33.35222 | -7.58265 | 659 ft | 0 kts | 341° |
| 2026-05-07 17:14 | 33.35229 | -7.58267 | 659 ft | 5 kts | 342° |
| 2026-05-07 17:14 | 33.35493 | -7.58358 | 656 ft | 79 kts | 343° |
| 2026-05-07 17:14 | 33.36262 | -7.58620 | 654 ft | 147 kts | 343° |
| 2026-05-07 17:15 | 33.37376 | -7.59025 | 1046 ft | 172 kts | 341° |
| 2026-05-07 17:15 | 33.38483 | -7.59387 | 1956 ft | 171 kts | 350° |
| 2026-05-07 17:15 | 33.39644 | -7.59666 | 2695 ft | 172 kts | 349° |
| 2026-05-07 17:15 | 33.40882 | -7.59811 | 3187 ft | 187 kts | 0° |
| 2026-05-07 17:16 | 33.42201 | -7.59613 | 3677 ft | 201 kts | 12° |
| 2026-05-07 17:16 | 33.43596 | -7.59077 | 4183 ft | 216 kts | 22° |
| 2026-05-07 17:16 | 33.44939 | -7.58232 | 4769 ft | 226 kts | 32° |
| 2026-05-07 17:16 | 33.46177 | -7.56985 | 5251 ft | 241 kts | 50° |
| 2026-05-07 17:17 | 33.46969 | -7.55138 | 5694 ft | 258 kts | 75° |
| 2026-05-07 17:17 | 33.47374 | -7.53034 | 6367 ft | 266 kts | 79° |
| 2026-05-07 17:17 | 33.47769 | -7.50811 | 6946 ft | 279 kts | 78° |
| 2026-05-07 17:17 | 33.48226 | -7.48538 | 7647 ft | 287 kts | 77° |
| 2026-05-07 17:18 | 33.48730 | -7.46225 | 8321 ft | 295 kts | 77° |
| 2026-05-07 17:18 | 33.49264 | -7.43844 | 9061 ft | 300 kts | 76° |
| 2026-05-07 17:18 | 33.49810 | -7.41425 | 9762 ft | 306 kts | 77° |
| 2026-05-07 17:18 | 33.50366 | -7.38944 | 10409 ft | 314 kts | 77° |
| 2026-05-07 17:19 | 33.50937 | -7.36380 | 10849 ft | 329 kts | 77° |
| 2026-05-07 17:19 | 33.51535 | -7.33678 | 11290 ft | 344 kts | 78° |
| 2026-05-07 17:19 | 33.52168 | -7.30821 | 11672 ft | 361 kts | 78° |
| 2026-05-07 17:19 | 33.52819 | -7.27878 | 12064 ft | 377 kts | 77° |
| 2026-05-07 17:20 | 33.53507 | -7.24772 | 12481 ft | 391 kts | 77° |
| 2026-05-07 17:20 | 33.54194 | -7.21595 | 13111 ft | 398 kts | 79° |
| 2026-05-07 17:20 | 33.54821 | -7.18358 | 13772 ft | 404 kts | 80° |
| 2026-05-07 17:20 | 33.55421 | -7.15024 | 14340 ft | 413 kts | 80° |
| 2026-05-07 17:21 | 33.56010 | -7.11679 | 14585 ft | 412 kts | 81° |
| 2026-05-07 17:21 | 33.56600 | -7.08340 | 14831 ft | 413 kts | 80° |
| 2026-05-07 17:21 | 33.57207 | -7.04930 | 14926 ft | 417 kts | 80° |
| 2026-05-07 17:21 | 33.57816 | -7.01551 | 14932 ft | 417 kts | 80° |
| 2026-05-07 17:22 | 33.58430 | -6.98166 | 14935 ft | 417 kts | 80° |
| 2026-05-07 17:22 | 33.59053 | -6.94740 | 15475 ft | 425 kts | 79° |
| 2026-05-07 17:22 | 33.59683 | -6.91289 | 16179 ft | 430 kts | 79° |
| 2026-05-07 17:22 | 33.60316 | -6.87814 | 16931 ft | 432 kts | 79° |
| 2026-05-07 17:23 | 33.60967 | -6.84238 | 17535 ft | 439 kts | 79° |
| 2026-05-07 17:23 | 33.61619 | -6.80648 | 18159 ft | 446 kts | 79° |
| 2026-05-07 17:23 | 33.62280 | -6.77010 | 18802 ft | 451 kts | 79° |
| 2026-05-07 17:23 | 33.62942 | -6.73352 | 19411 ft | 455 kts | 79° |
| 2026-05-07 17:24 | 33.63615 | -6.69632 | 20031 ft | 460 kts | 79° |
| 2026-05-07 17:24 | 33.64296 | -6.65856 | 20653 ft | 465 kts | 79° |
| 2026-05-07 17:24 | 33.64978 | -6.62071 | 21234 ft | 470 kts | 79° |
| 2026-05-07 17:24 | 33.65669 | -6.58235 | 21770 ft | 476 kts | 79° |
| 2026-05-07 17:25 | 33.66363 | -6.54367 | 22405 ft | 479 kts | 79° |
| 2026-05-07 17:25 | 33.67063 | -6.50450 | 22951 ft | 484 kts | 78° |
| 2026-05-07 17:25 | 33.67770 | -6.46497 | 23542 ft | 487 kts | 79° |
| 2026-05-07 17:25 | 33.68478 | -6.42525 | 24096 ft | 492 kts | 78° |
| 2026-05-07 17:26 | 33.69194 | -6.38501 | 24708 ft | 494 kts | 78° |
| 2026-05-07 17:26 | 33.69911 | -6.34467 | 25217 ft | 499 kts | 79° |
| 2026-05-07 17:26 | 33.70631 | -6.30407 | 25769 ft | 502 kts | 78° |
| 2026-05-07 17:26 | 33.71359 | -6.26292 | 26240 ft | 506 kts | 78° |
| 2026-05-07 17:27 | 33.72087 | -6.22167 | 26753 ft | 509 kts | 78° |
| 2026-05-07 17:27 | 33.72816 | -6.18030 | 27239 ft | 513 kts | 78° |
| 2026-05-07 17:27 | 33.73553 | -6.13837 | 27702 ft | 516 kts | 78° |
| 2026-05-07 17:27 | 33.74290 | -6.09639 | 28187 ft | 518 kts | 78° |
| 2026-05-07 17:28 | 33.75023 | -6.05449 | 28935 ft | 513 kts | 78° |
| 2026-05-07 17:28 | 33.75758 | -6.01244 | 29506 ft | 513 kts | 78° |
| 2026-05-07 17:28 | 33.76485 | -5.97077 | 30054 ft | 513 kts | 78° |
| 2026-05-07 17:28 | 33.77216 | -5.92875 | 30597 ft | 512 kts | 78° |
| 2026-05-07 17:29 | 33.77946 | -5.88669 | 31130 ft | 512 kts | 77° |
| 2026-05-07 17:29 | 33.78661 | -5.84542 | 31713 ft | 510 kts | 77° |
| 2026-05-07 17:29 | 33.79376 | -5.80407 | 32330 ft | 507 kts | 77° |
| 2026-05-07 17:29 | 33.80094 | -5.76241 | 32903 ft | 505 kts | 77° |
| 2026-05-07 17:30 | 33.80798 | -5.72151 | 33408 ft | 504 kts | 77° |
| 2026-05-07 17:30 | 33.81505 | -5.68033 | 33867 ft | 504 kts | 77° |
| 2026-05-07 17:30 | 33.82207 | -5.63939 | 34340 ft | 503 kts | 77° |
| 2026-05-07 17:30 | 33.82916 | -5.59789 | 34858 ft | 502 kts | 77° |
| 2026-05-07 17:31 | 33.83611 | -5.55712 | 35415 ft | 499 kts | 77° |
| 2026-05-07 17:31 | 33.84302 | -5.51652 | 35934 ft | 497 kts | 77° |
| 2026-05-07 17:31 | 33.84989 | -5.47613 | 36401 ft | 496 kts | 77° |
| 2026-05-07 17:31 | 33.85679 | -5.43546 | 36827 ft | 495 kts | 76° |
| 2026-05-07 17:32 | 33.86360 | -5.39527 | 37209 ft | 494 kts | 76° |
| 2026-05-07 17:32 | 33.87046 | -5.35477 | 37501 ft | 496 kts | 77° |
| 2026-05-07 17:32 | 33.87735 | -5.31398 | 37798 ft | 496 kts | 77° |
| 2026-05-07 17:32 | 33.88186 | -5.28715 | 37926 ft | 497 kts | 77° |
| 2026-05-07 17:33 | 33.89772 | -5.19259 | 37929 ft | 494 kts | 77° |
| 2026-05-07 17:33 | 33.91120 | -5.11176 | 37932 ft | 494 kts | 77° |
| 2026-05-07 17:34 | 33.92112 | -5.07275 | 37928 ft | 488 kts | 61° |
| 2026-05-07 17:34 | 33.93927 | -5.03888 | 37935 ft | 479 kts | 43° |
| 2026-05-07 17:34 | 33.98930 | -4.98736 | 37928 ft | 472 kts | 32° |
| 2026-05-07 17:35 | 34.04192 | -4.94018 | 37918 ft | 470 kts | 31° |
| 2026-05-07 17:35 | 34.09438 | -4.89325 | 37914 ft | 472 kts | 31° |
| 2026-05-07 17:36 | 34.14685 | -4.84544 | 37903 ft | 471 kts | 32° |
| 2026-05-07 17:36 | 34.19896 | -4.79735 | 37902 ft | 473 kts | 32° |
| 2026-05-07 17:37 | 34.25081 | -4.74915 | 37891 ft | 472 kts | 32° |
| 2026-05-07 17:37 | 34.30273 | -4.70071 | 37894 ft | 473 kts | 32° |
| 2026-05-07 17:38 | 34.35477 | -4.65209 | 37901 ft | 473 kts | 32° |
| 2026-05-07 17:38 | 34.40684 | -4.60333 | 37907 ft | 473 kts | 32° |
| 2026-05-07 17:39 | 34.45923 | -4.55423 | 37918 ft | 475 kts | 32° |
| 2026-05-07 17:39 | 34.51126 | -4.50537 | 37927 ft | 473 kts | 32° |
| 2026-05-07 17:40 | 34.56330 | -4.45641 | 37931 ft | 474 kts | 32° |
| 2026-05-07 17:40 | 34.61555 | -4.40717 | 37930 ft | 474 kts | 32° |
| 2026-05-07 17:41 | 34.66758 | -4.35807 | 37938 ft | 476 kts | 32° |
| 2026-05-07 17:41 | 34.71954 | -4.30896 | 37946 ft | 475 kts | 32° |
| 2026-05-07 17:42 | 34.77159 | -4.25968 | 37953 ft | 474 kts | 32° |
| 2026-05-07 17:42 | 34.82354 | -4.21039 | 37953 ft | 474 kts | 32° |
| 2026-05-07 17:43 | 34.87533 | -4.16118 | 37947 ft | 475 kts | 32° |
| 2026-05-07 17:43 | 34.92732 | -4.11174 | 37943 ft | 475 kts | 32° |
| 2026-05-07 17:44 | 34.97917 | -4.06231 | 37899 ft | 472 kts | 32° |
| 2026-05-07 17:44 | 35.03105 | -4.01281 | 37956 ft | 477 kts | 32° |
| 2026-05-07 17:45 | 35.08310 | -3.96302 | 37950 ft | 474 kts | 32° |
| 2026-05-07 17:45 | 35.13485 | -3.91345 | 37949 ft | 476 kts | 32° |
| 2026-05-07 17:46 | 35.18687 | -3.86354 | 37933 ft | 475 kts | 32° |
| 2026-05-07 17:46 | 35.23869 | -3.81376 | 37933 ft | 476 kts | 32° |
| 2026-05-07 17:47 | 35.26465 | -3.78878 | 38036 ft | 476 kts | 32° |
| 2026-05-07 17:47 | 35.29075 | -3.76365 | 37925 ft | 473 kts | 32° |
| 2026-05-07 17:47 | 35.34206 | -3.71412 | 37920 ft | 474 kts | 32° |
| 2026-05-07 17:48 | 35.39403 | -3.66397 | 37910 ft | 477 kts | 32° |
| 2026-05-07 17:48 | 35.44586 | -3.61381 | 37904 ft | 473 kts | 32° |
| 2026-05-07 17:49 | 35.49732 | -3.56393 | 37906 ft | 474 kts | 32° |
| 2026-05-07 17:49 | 35.54905 | -3.51370 | 37906 ft | 472 kts | 31° |
| 2026-05-07 17:50 | 35.60021 | -3.46396 | 37902 ft | 473 kts | 31° |
| 2026-05-07 17:50 | 35.65210 | -3.41345 | 37902 ft | 475 kts | 32° |
| 2026-05-07 17:51 | 35.70337 | -3.36341 | 37897 ft | 474 kts | 31° |
| 2026-05-07 17:51 | 35.75521 | -3.31276 | 37901 ft | 475 kts | 32° |
| 2026-05-07 17:52 | 35.80650 | -3.26254 | 37899 ft | 475 kts | 32° |
| 2026-05-07 17:52 | 35.83241 | -3.23716 | 37676 ft | 476 kts | 32° |
| 2026-05-07 17:52 | 35.85816 | -3.21202 | 37904 ft | 474 kts | 31° |
| 2026-05-07 17:53 | 35.91028 | -3.16181 | 37904 ft | 477 kts | 31° |
| 2026-05-07 17:53 | 35.96240 | -3.11176 | 37899 ft | 475 kts | 31° |
| 2026-05-07 17:54 | 36.01464 | -3.06147 | 37893 ft | 476 kts | 31° |
| 2026-05-07 17:54 | 36.06655 | -3.01138 | 37886 ft | 477 kts | 31° |
| 2026-05-07 17:55 | 36.11899 | -2.96062 | 37883 ft | 476 kts | 31° |
| 2026-05-07 17:55 | 36.17092 | -2.91021 | 37882 ft | 475 kts | 31° |
| 2026-05-07 17:56 | 36.22282 | -2.85984 | 37881 ft | 477 kts | 31° |
| 2026-05-07 17:56 | 36.27530 | -2.80956 | 37881 ft | 475 kts | 30° |
| 2026-05-07 17:57 | 36.31872 | -2.76821 | 37882 ft | 476 kts | 31° |
| 2026-05-07 17:57 | 36.37999 | -2.70973 | 37884 ft | 478 kts | 31° |
| 2026-05-07 17:58 | 36.43277 | -2.65918 | 37880 ft | 477 kts | 31° |
| 2026-05-07 17:58 | 36.48488 | -2.60902 | 37879 ft | 477 kts | 31° |
| 2026-05-07 17:59 | 36.53682 | -2.55770 | 37885 ft | 479 kts | 31° |
| 2026-05-07 17:59 | 36.58854 | -2.50583 | 37883 ft | 479 kts | 32° |
| 2026-05-07 18:00 | 36.64024 | -2.45383 | 37885 ft | 478 kts | 31° |
| 2026-05-07 18:00 | 36.69236 | -2.40149 | 37885 ft | 480 kts | 31° |
| 2026-05-07 18:01 | 36.74394 | -2.34969 | 37887 ft | 479 kts | 32° |
| 2026-05-07 18:01 | 36.79588 | -2.29743 | 37896 ft | 479 kts | 32° |
| 2026-05-07 18:02 | 36.87779 | -2.22768 | 37917 ft | 471 kts | 21° |
| 2026-05-07 18:03 | 36.93538 | -2.18924 | 37925 ft | 470 kts | 19° |
| 2026-05-07 18:03 | 36.99371 | -2.15174 | 37934 ft | 470 kts | 19° |
| 2026-05-07 18:04 | 37.05127 | -2.11431 | 37930 ft | 470 kts | 19° |
| 2026-05-07 18:04 | 37.10921 | -2.07615 | 37923 ft | 470 kts | 19° |
| 2026-05-07 18:05 | 37.16706 | -2.03770 | 37927 ft | 470 kts | 19° |
| 2026-05-07 18:05 | 37.22507 | -1.99896 | 37920 ft | 472 kts | 19° |
| 2026-05-07 18:06 | 37.28269 | -1.96080 | 37916 ft | 471 kts | 19° |
| 2026-05-07 18:06 | 37.34095 | -1.92347 | 37924 ft | 469 kts | 18° |
| 2026-05-07 18:07 | 37.39919 | -1.88638 | 37936 ft | 469 kts | 18° |
| 2026-05-07 18:07 | 37.45724 | -1.84932 | 37938 ft | 468 kts | 18° |
| 2026-05-07 18:08 | 37.51497 | -1.81224 | 37904 ft | 466 kts | 18° |
| 2026-05-07 18:08 | 37.57287 | -1.77496 | 37912 ft | 469 kts | 18° |
| 2026-05-07 18:09 | 37.63076 | -1.73762 | 37896 ft | 468 kts | 18° |
| 2026-05-07 18:09 | 37.68849 | -1.70024 | 37893 ft | 467 kts | 18° |
| 2026-05-07 18:10 | 37.74617 | -1.66284 | 37893 ft | 466 kts | 18° |
| 2026-05-07 18:10 | 37.80356 | -1.62559 | 37921 ft | 468 kts | 18° |
| 2026-05-07 18:11 | 37.86108 | -1.58662 | 37914 ft | 472 kts | 23° |
| 2026-05-07 18:11 | 37.91546 | -1.53879 | 37891 ft | 478 kts | 25° |
| 2026-05-07 18:12 | 37.97260 | -1.49888 | 37918 ft | 462 kts | 14° |
| 2026-05-07 18:12 | 38.03175 | -1.46637 | 37936 ft | 463 kts | 14° |
| 2026-05-07 18:13 | 38.08997 | -1.43283 | 37912 ft | 461 kts | 16° |
| 2026-05-07 18:13 | 38.14804 | -1.39656 | 37933 ft | 463 kts | 17° |
| 2026-05-07 18:14 | 38.20503 | -1.35927 | 37928 ft | 464 kts | 18° |
| 2026-05-07 18:14 | 38.26249 | -1.32095 | 37919 ft | 464 kts | 19° |
| 2026-05-07 18:15 | 38.31947 | -1.28266 | 37931 ft | 465 kts | 19° |
| 2026-05-07 18:15 | 38.37631 | -1.24438 | 37917 ft | 464 kts | 19° |
| 2026-05-07 18:16 | 38.43337 | -1.20585 | 37920 ft | 462 kts | 19° |
| 2026-05-07 18:16 | 38.48961 | -1.16780 | 37940 ft | 461 kts | 20° |
| 2026-05-07 18:17 | 38.54657 | -1.12931 | 37943 ft | 463 kts | 20° |
| 2026-05-07 18:17 | 38.60347 | -1.09071 | 37941 ft | 465 kts | 20° |
| 2026-05-07 18:18 | 38.66019 | -1.05217 | 37956 ft | 462 kts | 20° |
| 2026-05-07 18:18 | 38.71668 | -1.01370 | 37959 ft | 461 kts | 20° |
| 2026-05-07 18:19 | 38.77367 | -0.97488 | 37954 ft | 462 kts | 20° |
| 2026-05-07 18:19 | 38.83028 | -0.93625 | 37950 ft | 463 kts | 21° |
| 2026-05-07 18:20 | 38.88706 | -0.89741 | 37956 ft | 465 kts | 21° |
| 2026-05-07 18:20 | 38.94408 | -0.85830 | 37955 ft | 464 kts | 21° |
| 2026-05-07 18:21 | 39.00106 | -0.81917 | 37959 ft | 465 kts | 21° |
| 2026-05-07 18:21 | 39.05764 | -0.77897 | 37963 ft | 468 kts | 25° |
| 2026-05-07 18:22 | 39.11108 | -0.73001 | 37964 ft | 475 kts | 32° |
| 2026-05-07 18:22 | 39.16213 | -0.67610 | 37954 ft | 474 kts | 34° |
| 2026-05-07 18:23 | 39.21283 | -0.62099 | 37956 ft | 479 kts | 34° |
| 2026-05-07 18:23 | 39.26368 | -0.56578 | 37950 ft | 477 kts | 34° |
| 2026-05-07 18:24 | 39.31477 | -0.51180 | 37946 ft | 475 kts | 32° |
| 2026-05-07 18:24 | 39.36721 | -0.46057 | 37956 ft | 477 kts | 31° |
| 2026-05-07 18:25 | 39.42051 | -0.40961 | 37948 ft | 476 kts | 31° |
| 2026-05-07 18:25 | 39.47342 | -0.35871 | 37946 ft | 477 kts | 31° |
| 2026-05-07 18:26 | 39.52665 | -0.30706 | 37942 ft | 479 kts | 32° |
| 2026-05-07 18:26 | 39.57995 | -0.25505 | 37946 ft | 479 kts | 32° |
| 2026-05-07 18:27 | 39.63268 | -0.20336 | 37943 ft | 479 kts | 33° |
| 2026-05-07 18:27 | 39.68567 | -0.15129 | 37951 ft | 480 kts | 33° |
| 2026-05-07 18:28 | 39.73917 | -0.09863 | 37930 ft | 481 kts | 33° |
| 2026-05-07 18:28 | 39.79208 | -0.04640 | 37972 ft | 481 kts | 33° |
| 2026-05-07 18:29 | 39.84370 | 0.00873 | 37940 ft | 483 kts | 39° |
| 2026-05-07 18:29 | 39.89132 | 0.07099 | 37942 ft | 487 kts | 43° |
| 2026-05-07 18:30 | 39.93686 | 0.13518 | 37942 ft | 486 kts | 44° |
| 2026-05-07 18:30 | 39.98263 | 0.20033 | 37937 ft | 487 kts | 44° |
| 2026-05-07 18:31 | 40.02856 | 0.26528 | 37938 ft | 487 kts | 44° |
| 2026-05-07 18:31 | 40.07419 | 0.32948 | 37942 ft | 485 kts | 44° |
| 2026-05-07 18:32 | 40.12046 | 0.39438 | 37944 ft | 488 kts | 44° |
| 2026-05-07 18:32 | 40.16636 | 0.45881 | 37940 ft | 488 kts | 44° |
| 2026-05-07 18:33 | 40.21248 | 0.52364 | 37938 ft | 487 kts | 44° |
| 2026-05-07 18:33 | 40.25861 | 0.58863 | 37937 ft | 488 kts | 44° |
| 2026-05-07 18:34 | 40.30462 | 0.65363 | 37937 ft | 488 kts | 45° |
| 2026-05-07 18:34 | 40.35080 | 0.71906 | 37934 ft | 489 kts | 45° |
| 2026-05-07 18:35 | 40.39642 | 0.78383 | 37944 ft | 487 kts | 45° |
| 2026-05-07 18:35 | 40.44233 | 0.84915 | 37916 ft | 488 kts | 45° |
| 2026-05-07 18:36 | 40.48856 | 0.91506 | 37946 ft | 489 kts | 45° |
| 2026-05-07 18:36 | 40.53413 | 0.98021 | 37938 ft | 489 kts | 45° |
| 2026-05-07 18:37 | 40.58016 | 1.04614 | 37945 ft | 489 kts | 45° |
| 2026-05-07 18:37 | 40.62596 | 1.11195 | 37862 ft | 487 kts | 46° |
| 2026-05-07 18:37 | 40.64867 | 1.14465 | 37965 ft | 488 kts | 46° |
| 2026-05-07 18:38 | 40.67148 | 1.17750 | 37949 ft | 489 kts | 46° |
| 2026-05-07 18:38 | 40.71721 | 1.24350 | 37947 ft | 487 kts | 46° |
| 2026-05-07 18:39 | 40.76284 | 1.30944 | 37948 ft | 485 kts | 46° |
| 2026-05-07 18:39 | 40.80827 | 1.37518 | 37944 ft | 487 kts | 46° |
| 2026-05-07 18:40 | 40.85384 | 1.44129 | 37934 ft | 487 kts | 46° |
| 2026-05-07 18:40 | 40.89918 | 1.50722 | 37938 ft | 487 kts | 46° |
| 2026-05-07 18:41 | 40.94467 | 1.57355 | 37934 ft | 488 kts | 46° |
| 2026-05-07 18:41 | 40.99007 | 1.63989 | 37936 ft | 487 kts | 46° |
| 2026-05-07 18:42 | 41.03523 | 1.70605 | 37934 ft | 488 kts | 47° |
| 2026-05-07 18:42 | 41.08076 | 1.77290 | 37939 ft | 488 kts | 47° |
| 2026-05-07 18:43 | 41.12600 | 1.83944 | 37949 ft | 487 kts | 47° |
| 2026-05-07 18:43 | 41.17154 | 1.90654 | 37950 ft | 489 kts | 47° |
| 2026-05-07 18:44 | 41.21680 | 1.97336 | 37959 ft | 488 kts | 47° |
| 2026-05-07 18:44 | 41.26203 | 2.04031 | 37965 ft | 489 kts | 47° |
| 2026-05-07 18:45 | 41.30443 | 2.11104 | 37957 ft | 488 kts | 56° |
| 2026-05-07 18:45 | 41.33772 | 2.18912 | 37941 ft | 487 kts | 64° |
| 2026-05-07 18:46 | 41.36639 | 2.27107 | 37958 ft | 492 kts | 66° |
| 2026-05-07 18:46 | 41.39389 | 2.35319 | 37958 ft | 488 kts | 67° |
| 2026-05-07 18:47 | 41.42167 | 2.43575 | 37957 ft | 488 kts | 67° |
| 2026-05-07 18:47 | 41.44958 | 2.51785 | 37950 ft | 489 kts | 66° |
| 2026-05-07 18:48 | 41.47767 | 2.60008 | 37952 ft | 489 kts | 66° |
| 2026-05-07 18:48 | 41.50574 | 2.68217 | 37942 ft | 489 kts | 67° |
| 2026-05-07 18:49 | 41.53380 | 2.76437 | 37944 ft | 487 kts | 67° |
| 2026-05-07 18:49 | 41.56178 | 2.84655 | 37947 ft | 489 kts | 68° |
| 2026-05-07 18:50 | 41.58990 | 2.92942 | 37948 ft | 489 kts | 67° |
| 2026-05-07 18:50 | 41.61776 | 3.01172 | 37956 ft | 487 kts | 68° |
| 2026-05-07 18:51 | 41.64555 | 3.09410 | 37949 ft | 489 kts | 68° |
| 2026-05-07 18:51 | 41.67345 | 3.17707 | 37951 ft | 489 kts | 68° |
| 2026-05-07 18:52 | 41.70113 | 3.25959 | 37951 ft | 489 kts | 68° |
| 2026-05-07 18:52 | 41.72874 | 3.34218 | 37956 ft | 490 kts | 68° |
| 2026-05-07 18:53 | 41.75661 | 3.42580 | 37955 ft | 491 kts | 68° |
| 2026-05-07 18:53 | 41.78428 | 3.50911 | 37949 ft | 492 kts | 68° |
| 2026-05-07 18:54 | 41.81179 | 3.59208 | 37951 ft | 491 kts | 68° |
| 2026-05-07 18:54 | 41.83947 | 3.67586 | 37954 ft | 492 kts | 69° |
| 2026-05-07 18:55 | 41.86702 | 3.75948 | 37967 ft | 493 kts | 69° |
| 2026-05-07 18:55 | 41.89457 | 3.84342 | 37957 ft | 492 kts | 68° |
| 2026-05-07 18:56 | 41.92190 | 3.92694 | 37964 ft | 493 kts | 69° |
| 2026-05-07 18:56 | 41.94947 | 4.01147 | 37975 ft | 493 kts | 69° |
| 2026-05-07 18:57 | 41.97677 | 4.09540 | 37970 ft | 493 kts | 69° |
| 2026-05-07 18:57 | 42.00397 | 4.17929 | 37969 ft | 493 kts | 69° |
| 2026-05-07 18:58 | 42.03120 | 4.26357 | 37966 ft | 493 kts | 69° |
| 2026-05-07 18:58 | 42.05847 | 4.34779 | 37963 ft | 495 kts | 67° |
| 2026-05-07 18:59 | 42.09256 | 4.42764 | 37967 ft | 494 kts | 51° |
| 2026-05-07 18:59 | 42.14072 | 4.49426 | 37968 ft | 496 kts | 41° |
| 2026-05-07 19:00 | 42.19243 | 4.55518 | 37967 ft | 495 kts | 40° |
| 2026-05-07 19:00 | 42.24461 | 4.61541 | 37970 ft | 495 kts | 39° |
| 2026-05-07 19:01 | 42.29637 | 4.67638 | 37970 ft | 495 kts | 41° |
| 2026-05-07 19:01 | 42.34784 | 4.73810 | 37968 ft | 495 kts | 41° |
| 2026-05-07 19:02 | 42.39886 | 4.79992 | 37967 ft | 495 kts | 41° |
| 2026-05-07 19:02 | 42.44976 | 4.86189 | 37969 ft | 496 kts | 41° |
| 2026-05-07 19:03 | 42.50067 | 4.92406 | 37966 ft | 494 kts | 41° |
| 2026-05-07 19:03 | 42.55378 | 4.98388 | 37966 ft | 496 kts | 32° |
| 2026-05-07 19:03 | 42.58349 | 5.00627 | 37971 ft | 491 kts | 21° |
| 2026-05-07 19:04 | 42.61522 | 5.02289 | 37969 ft | 490 kts | 15° |
| 2026-05-07 19:04 | 42.68024 | 5.04931 | 37954 ft | 488 kts | 12° |
| 2026-05-07 19:04 | 42.71269 | 5.06124 | 37679 ft | 483 kts | 12° |
| 2026-05-07 19:05 | 42.74507 | 5.07307 | 37276 ft | 478 kts | 12° |
| 2026-05-07 19:05 | 42.77706 | 5.08492 | 36734 ft | 477 kts | 12° |
| 2026-05-07 19:05 | 42.80887 | 5.09692 | 36168 ft | 477 kts | 12° |
| 2026-05-07 19:05 | 42.84059 | 5.10908 | 35571 ft | 480 kts | 12° |
| 2026-05-07 19:06 | 42.87286 | 5.12161 | 34901 ft | 484 kts | 12° |
| 2026-05-07 19:06 | 42.93780 | 5.14723 | 33314 ft | 490 kts | 12° |
| 2026-05-07 19:06 | 42.97056 | 5.16029 | 32537 ft | 492 kts | 12° |
| 2026-05-07 19:07 | 43.00337 | 5.17343 | 31772 ft | 492 kts | 12° |
| 2026-05-07 19:07 | 43.03556 | 5.18639 | 31243 ft | 487 kts | 12° |
| 2026-05-07 19:07 | 43.06790 | 5.19950 | 30673 ft | 483 kts | 12° |
| 2026-05-07 19:07 | 43.10017 | 5.21266 | 30083 ft | 480 kts | 12° |
| 2026-05-07 19:08 | 43.13219 | 5.22576 | 29489 ft | 476 kts | 13° |
| 2026-05-07 19:08 | 43.16351 | 5.23858 | 28901 ft | 472 kts | 13° |
| 2026-05-07 19:08 | 43.19496 | 5.25148 | 28307 ft | 469 kts | 13° |
| 2026-05-07 19:08 | 43.22592 | 5.26417 | 27724 ft | 465 kts | 13° |
| 2026-05-07 19:09 | 43.25671 | 5.27680 | 27120 ft | 461 kts | 13° |
| 2026-05-07 19:09 | 43.28705 | 5.28925 | 26539 ft | 457 kts | 13° |
| 2026-05-07 19:09 | 43.31755 | 5.30176 | 25934 ft | 453 kts | 13° |
| 2026-05-07 19:09 | 43.34698 | 5.31451 | 25329 ft | 438 kts | 16° |
| 2026-05-07 19:10 | 43.37492 | 5.32933 | 24767 ft | 425 kts | 22° |
| 2026-05-07 19:10 | 43.40119 | 5.34739 | 24223 ft | 422 kts | 27° |
| 2026-05-07 19:10 | 43.42647 | 5.36799 | 23655 ft | 420 kts | 31° |
| 2026-05-07 19:10 | 43.45106 | 5.38978 | 23085 ft | 418 kts | 32° |
| 2026-05-07 19:11 | 43.47444 | 5.41301 | 22526 ft | 415 kts | 40° |
| 2026-05-07 19:11 | 43.49405 | 5.44152 | 22040 ft | 411 kts | 52° |
| 2026-05-07 19:11 | 43.50915 | 5.47402 | 21959 ft | 399 kts | 61° |
| 2026-05-07 19:11 | 43.52155 | 5.50833 | 21964 ft | 401 kts | 66° |
| 2026-05-07 19:12 | 43.53247 | 5.54368 | 21964 ft | 403 kts | 68° |
| 2026-05-07 19:12 | 43.54267 | 5.57959 | 21963 ft | 403 kts | 69° |
| 2026-05-07 19:12 | 43.55246 | 5.61526 | 21963 ft | 402 kts | 70° |
| 2026-05-07 19:12 | 43.56162 | 5.65198 | 21962 ft | 402 kts | 75° |
| 2026-05-07 19:13 | 43.56784 | 5.68919 | 21946 ft | 400 kts | 81° |
| 2026-05-07 19:13 | 43.57097 | 5.72677 | 21637 ft | 396 kts | 91° |
| 2026-05-07 19:13 | 43.56864 | 5.76445 | 21331 ft | 394 kts | 102° |
| 2026-05-07 19:13 | 43.56203 | 5.80101 | 21021 ft | 390 kts | 109° |
| 2026-05-07 19:14 | 43.55370 | 5.83588 | 20716 ft | 387 kts | 111° |
| 2026-05-07 19:14 | 43.54484 | 5.87090 | 20405 ft | 384 kts | 111° |
| 2026-05-07 19:14 | 43.53630 | 5.90529 | 20104 ft | 382 kts | 110° |
| 2026-05-07 19:14 | 43.52797 | 5.94009 | 19794 ft | 380 kts | 109° |
| 2026-05-07 19:15 | 43.52000 | 5.97475 | 19487 ft | 378 kts | 109° |
| 2026-05-07 19:15 | 43.51241 | 6.00875 | 19187 ft | 376 kts | 108° |
| 2026-05-07 19:15 | 43.50492 | 6.04309 | 18884 ft | 373 kts | 108° |
| 2026-05-07 19:15 | 43.49757 | 6.07723 | 18578 ft | 371 kts | 108° |
| 2026-05-07 19:16 | 43.49034 | 6.11109 | 18277 ft | 369 kts | 108° |
| 2026-05-07 19:16 | 43.48317 | 6.14489 | 17938 ft | 368 kts | 108° |
| 2026-05-07 19:16 | 43.47609 | 6.17828 | 17413 ft | 366 kts | 108° |
| 2026-05-07 19:16 | 43.46895 | 6.21199 | 16863 ft | 364 kts | 107° |
| 2026-05-07 19:17 | 43.46191 | 6.24514 | 16287 ft | 364 kts | 107° |
| 2026-05-07 19:17 | 43.45486 | 6.27835 | 15723 ft | 362 kts | 107° |
| 2026-05-07 19:17 | 43.44788 | 6.31115 | 15213 ft | 359 kts | 107° |
| 2026-05-07 19:17 | 43.44086 | 6.34411 | 14680 ft | 357 kts | 107° |
| 2026-05-07 19:18 | 43.43404 | 6.37647 | 14176 ft | 354 kts | 107° |
| 2026-05-07 19:18 | 43.42726 | 6.40889 | 13672 ft | 352 kts | 107° |
| 2026-05-07 19:18 | 43.42047 | 6.44110 | 13157 ft | 350 kts | 107° |
| 2026-05-07 19:18 | 43.41368 | 6.47305 | 12636 ft | 347 kts | 107° |
| 2026-05-07 19:19 | 43.40858 | 6.50448 | 12415 ft | 337 kts | 96° |
| 2026-05-07 19:19 | 43.40823 | 6.53644 | 12032 ft | 332 kts | 86° |
| 2026-05-07 19:19 | 43.41013 | 6.56776 | 11293 ft | 327 kts | 84° |
| 2026-05-07 19:19 | 43.41218 | 6.59814 | 10685 ft | 318 kts | 85° |
| 2026-05-07 19:20 | 43.41363 | 6.62802 | 10198 ft | 307 kts | 87° |
| 2026-05-07 19:20 | 43.41444 | 6.65637 | 9848 ft | 292 kts | 89° |
| 2026-05-07 19:20 | 43.41486 | 6.68379 | 9365 ft | 284 kts | 89° |
| 2026-05-07 19:20 | 43.41512 | 6.71092 | 8767 ft | 282 kts | 90° |
| 2026-05-07 19:21 | 43.41533 | 6.73761 | 8196 ft | 279 kts | 89° |
| 2026-05-07 19:21 | 43.41554 | 6.76369 | 7902 ft | 274 kts | 89° |
| 2026-05-07 19:21 | 43.41577 | 6.78999 | 7644 ft | 277 kts | 89° |
| 2026-05-07 19:21 | 43.41600 | 6.81644 | 7394 ft | 276 kts | 89° |
| 2026-05-07 19:22 | 43.41623 | 6.84267 | 7147 ft | 274 kts | 89° |
| 2026-05-07 19:22 | 43.41646 | 6.86861 | 6974 ft | 274 kts | 89° |
| 2026-05-07 19:22 | 43.41668 | 6.89454 | 6975 ft | 270 kts | 89° |
| 2026-05-07 19:22 | 43.41689 | 6.91982 | 6961 ft | 256 kts | 89° |
| 2026-05-07 19:23 | 43.41707 | 6.94356 | 6979 ft | 241 kts | 89° |
| 2026-05-07 19:23 | 43.41725 | 6.96609 | 6978 ft | 230 kts | 89° |
| 2026-05-07 19:23 | 43.41742 | 6.98846 | 6814 ft | 249 kts | 89° |
| 2026-05-07 19:23 | 43.41760 | 7.01235 | 6637 ft | 243 kts | 89° |
| 2026-05-07 19:24 | 43.41776 | 7.03475 | 6394 ft | 233 kts | 89° |
| 2026-05-07 19:24 | 43.41792 | 7.05691 | 5923 ft | 234 kts | 89° |
| 2026-05-07 19:24 | 43.41807 | 7.07950 | 5431 ft | 234 kts | 89° |
| 2026-05-07 19:24 | 43.41911 | 7.10156 | 4975 ft | 228 kts | 79° |
| 2026-05-07 19:25 | 43.42518 | 7.12080 | 4546 ft | 221 kts | 50° |
| 2026-05-07 19:25 | 43.43631 | 7.13450 | 4241 ft | 210 kts | 38° |
| 2026-05-07 19:25 | 43.44769 | 7.14658 | 3928 ft | 203 kts | 39° |
| 2026-05-07 19:25 | 43.45869 | 7.15797 | 3672 ft | 194 kts | 32° |
| 2026-05-07 19:26 | 43.47112 | 7.16398 | 3487 ft | 189 kts | 2° |
| 2026-05-07 19:26 | 43.48382 | 7.16242 | 3311 ft | 179 kts | 353° |
| 2026-05-07 19:26 | 43.49596 | 7.16036 | 3151 ft | 172 kts | 355° |
| 2026-05-07 19:26 | 43.50777 | 7.15906 | 3010 ft | 172 kts | 357° |
| 2026-05-07 19:27 | 43.51982 | 7.15794 | 2850 ft | 174 kts | 357° |
| 2026-05-07 19:27 | 43.53177 | 7.15681 | 2561 ft | 172 kts | 356° |
| 2026-05-07 19:27 | 43.54329 | 7.15570 | 2349 ft | 159 kts | 356° |
| 2026-05-07 19:27 | 43.55428 | 7.15465 | 2140 ft | 158 kts | 357° |
| 2026-05-07 19:28 | 43.56520 | 7.15380 | 1942 ft | 157 kts | 358° |
| 2026-05-07 19:28 | 43.57608 | 7.15327 | 1771 ft | 157 kts | 360° |
| 2026-05-07 19:28 | 43.58717 | 7.15307 | 1519 ft | 158 kts | 0° |
| 2026-05-07 19:28 | 43.59751 | 7.15293 | 1431 ft | 144 kts | 1° |
| 2026-05-07 19:29 | 43.60764 | 7.15294 | 1203 ft | 145 kts | 1° |
| 2026-05-07 19:29 | 43.61736 | 7.15476 | 1016 ft | 140 kts | 24° |
| 2026-05-07 19:29 | 43.62514 | 7.16277 | 774 ft | 141 kts | 49° |
| 2026-05-07 19:29 | 43.63125 | 7.17289 | 565 ft | 137 kts | 51° |
| 2026-05-07 19:30 | 43.63759 | 7.18290 | 436 ft | 138 kts | 50° |
| 2026-05-07 19:30 | 43.64383 | 7.19303 | 277 ft | 139 kts | 46° |
| 2026-05-07 19:30 | 43.65055 | 7.20212 | 122 ft | 133 kts | 46° |
| 2026-05-07 19:30 | 43.65703 | 7.21112 | 23 ft | 121 kts | 46° |
| 2026-05-07 19:31 | 43.66145 | 7.21729 | 23 ft | 59 kts | 45° |
| 2026-05-07 19:31 | 43.66402 | 7.22004 | 23 ft | 36 kts | 22° |
| 2026-05-07 19:31 | 43.66525 | 7.22052 | 23 ft | 5 kts | 346° |
| 2026-05-07 19:31 | 43.66542 | 7.22040 | 23 ft | 0 kts | 322° |
| 2026-05-07 19:32 | 43.66552 | 7.22027 | 23 ft | 5 kts | 307° |
| 2026-05-07 19:32 | 43.66539 | 7.21951 | 23 ft | 10 kts | 226° |
| 2026-05-07 19:33 | 43.66488 | 7.21880 | 23 ft | 10 kts | 224° |
| 2026-05-07 19:33 | 43.66435 | 7.21809 | 23 ft | 10 kts | 225° |
| 2026-05-07 19:33 | 43.66385 | 7.21740 | 24 ft | 10 kts | 225° |
| 2026-05-07 19:33 | 43.66335 | 7.21671 | 24 ft | 10 kts | 224° |
| 2026-05-07 19:34 | 43.66279 | 7.21595 | 24 ft | 14 kts | 225° |
| 2026-05-07 19:34 | 43.66182 | 7.21460 | 24 ft | 24 kts | 226° |
| 2026-05-07 19:34 | 43.66053 | 7.21282 | 24 ft | 25 kts | 225° |
| 2026-05-07 19:34 | 43.65926 | 7.21108 | 24 ft | 25 kts | 224° |
| 2026-05-07 19:35 | 43.65825 | 7.20969 | 24 ft | 12 kts | 225° |
| 2026-05-07 19:35 | 43.65812 | 7.20872 | 24 ft | 11 kts | 329° |
| 2026-05-07 19:35 | 43.65869 | 7.20818 | 25 ft | 8 kts | 287° |
| 2026-05-07 19:35 | 43.65843 | 7.20747 | 25 ft | 8 kts | 225° |
| 2026-05-07 19:36 | 43.65800 | 7.20688 | 25 ft | 8 kts | 224° |
| 2026-05-07 19:36 | 43.65793 | 7.20630 | 25 ft | 7 kts | 316° |
| 2026-05-07 19:36 | 43.65829 | 7.20598 | 25 ft | 3 kts | 331° |
| 2026-05-07 19:36 | 43.65832 | 7.20595 | 25 ft | 0 kts | 331° |